sensor_id;sensor_type;location;lat;lon;timestamp;P1;durP1;ratioP1;P2;durP2;ratioP2
67195;SDS011;54122;53.538;49.366;2022-11-15T00:02:07;2.85;;;0.50;;
67195;SDS011;54122;53.538;49.366;2022-11-15T00:04:33;2.60;;;0.50;;
67195;SDS011;54122;53.538;49.366;2022-11-15T00:06:59;3.20;;;0.63;;
67195;SDS011;54122;53.538;49.366;2022-11-15T00:09:25;11.88;;;0.50;;
67195;SDS011;54122;53.538;49.366;2022-11-15T00:11:52;1.85;;;0.60;;
67195;SDS011;54122;53.538;49.366;2022-11-15T00:14:18;3.17;;;0.70;;
67195;SDS011;54122;53.538;49.366;2022-11-15T00:16:44;3.13;;;0.60;;
67195;SDS011;54122;53.538;49.366;2022-11-15T00:19:10;2.72;;;0.50;;
67195;SDS011;54122;53.538;49.366;2022-11-15T00:21:36;5.07;;;0.50;;
67195;SDS011;54122;53.538;49.366;2022-11-15T00:24:03;4.53;;;0.70;;
67195;SDS011;54122;53.538;49.366;2022-11-15T00:26:29;3.72;;;0.77;;
67195;SDS011;54122;53.538;49.366;2022-11-15T00:28:55;4.38;;;0.60;;
67195;SDS011;54122;53.538;49.366;2022-11-15T00:31:21;3.30;;;0.77;;
67195;SDS011;54122;53.538;49.366;2022-11-15T00:33:47;5.53;;;0.63;;
67195;SDS011;54122;53.538;49.366;2022-11-15T00:36:13;1.92;;;0.50;;
67195;SDS011;54122;53.538;49.366;2022-11-15T00:38:40;12.27;;;0.70;;
67195;SDS011;54122;53.538;49.366;2022-11-15T00:41:06;5.03;;;0.93;;
67195;SDS011;54122;53.538;49.366;2022-11-15T00:43:33;4.53;;;0.60;;
67195;SDS011;54122;53.538;49.366;2022-11-15T00:46:00;2.90;;;0.43;;
67195;SDS011;54122;53.538;49.366;2022-11-15T00:48:27;4.40;;;0.60;;
67195;SDS011;54122;53.538;49.366;2022-11-15T00:50:54;7.30;;;0.43;;
67195;SDS011;54122;53.538;49.366;2022-11-15T00:53:20;1.95;;;0.57;;
67195;SDS011;54122;53.538;49.366;2022-11-15T00:55:46;2.50;;;0.50;;
67195;SDS011;54122;53.538;49.366;2022-11-15T00:58:12;2.13;;;0.50;;
67195;SDS011;54122;53.538;49.366;2022-11-15T01:00:39;4.38;;;0.85;;
67195;SDS011;54122;53.538;49.366;2022-11-15T01:03:05;2.00;;;0.68;;
67195;SDS011;54122;53.538;49.366;2022-11-15T01:05:31;1.60;;;0.50;;
67195;SDS011;54122;53.538;49.366;2022-11-15T01:07:57;3.60;;;0.77;;
67195;SDS011;54122;53.538;49.366;2022-11-15T01:10:23;2.58;;;0.40;;
67195;SDS011;54122;53.538;49.366;2022-11-15T01:12:51;3.85;;;0.60;;
67195;SDS011;54122;53.538;49.366;2022-11-15T01:15:17;10.48;;;0.80;;
67195;SDS011;54122;53.538;49.366;2022-11-15T01:17:43;5.65;;;0.80;;
67195;SDS011;54122;53.538;49.366;2022-11-15T01:20:09;8.90;;;1.02;;
67195;SDS011;54122;53.538;49.366;2022-11-15T01:22:36;3.45;;;0.98;;
67195;SDS011;54122;53.538;49.366;2022-11-15T01:25:02;8.07;;;1.13;;
67195;SDS011;54122;53.538;49.366;2022-11-15T01:27:28;2.63;;;0.70;;
67195;SDS011;54122;53.538;49.366;2022-11-15T01:29:55;12.57;;;0.80;;
67195;SDS011;54122;53.538;49.366;2022-11-15T01:32:21;7.85;;;0.85;;
67195;SDS011;54122;53.538;49.366;2022-11-15T01:34:47;6.07;;;0.80;;
67195;SDS011;54122;53.538;49.366;2022-11-15T01:37:13;4.68;;;0.95;;
67195;SDS011;54122;53.538;49.366;2022-11-15T01:39:39;6.07;;;0.70;;
67195;SDS011;54122;53.538;49.366;2022-11-15T01:42:05;2.33;;;0.70;;
67195;SDS011;54122;53.538;49.366;2022-11-15T01:47:05;1.85;;;0.80;;
67195;SDS011;54122;53.538;49.366;2022-11-15T01:49:50;2.95;;;0.80;;
67195;SDS011;54122;53.538;49.366;2022-11-15T01:54:45;7.22;;;1.45;;
67195;SDS011;54122;53.538;49.366;2022-11-15T01:57:13;3.78;;;0.75;;
67195;SDS011;54122;53.538;49.366;2022-11-15T01:59:40;8.10;;;0.85;;
67195;SDS011;54122;53.538;49.366;2022-11-15T02:02:10;2.90;;;0.70;;
67195;SDS011;54122;53.538;49.366;2022-11-15T02:04:39;7.25;;;0.80;;
67195;SDS011;54122;53.538;49.366;2022-11-15T02:07:07;3.97;;;1.67;;
67195;SDS011;54122;53.538;49.366;2022-11-15T02:09:36;5.43;;;0.80;;
67195;SDS011;54122;53.538;49.366;2022-11-15T02:12:03;3.03;;;0.73;;
67195;SDS011;54122;53.538;49.366;2022-11-15T02:14:31;10.45;;;1.17;;
67195;SDS011;54122;53.538;49.366;2022-11-15T02:16:59;2.90;;;0.50;;
67195;SDS011;54122;53.538;49.366;2022-11-15T02:34:50;1.85;;;0.73;;
67195;SDS011;54122;53.538;49.366;2022-11-15T02:42:43;2.08;;;0.77;;
67195;SDS011;54122;53.538;49.366;2022-11-15T02:45:39;2.88;;;1.00;;
67195;SDS011;54122;53.538;49.366;2022-11-15T02:48:09;1.40;;;0.70;;
67195;SDS011;54122;53.538;49.366;2022-11-15T02:50:37;1.80;;;0.63;;
67195;SDS011;54122;53.538;49.366;2022-11-15T02:53:04;10.52;;;1.00;;
67195;SDS011;54122;53.538;49.366;2022-11-15T02:55:34;3.85;;;1.08;;
67195;SDS011;54122;53.538;49.366;2022-11-15T02:58:21;6.43;;;0.90;;
67195;SDS011;54122;53.538;49.366;2022-11-15T03:04:11;9.30;;;1.10;;
67195;SDS011;54122;53.538;49.366;2022-11-15T03:07:14;3.80;;;0.98;;
67195;SDS011;54122;53.538;49.366;2022-11-15T03:10:12;9.90;;;0.93;;
67195;SDS011;54122;53.538;49.366;2022-11-15T03:12:45;4.35;;;1.00;;
67195;SDS011;54122;53.538;49.366;2022-11-15T03:15:28;17.38;;;1.02;;
67195;SDS011;54122;53.538;49.366;2022-11-15T03:20:26;7.53;;;1.10;;
67195;SDS011;54122;53.538;49.366;2022-11-15T03:22:54;1.85;;;0.60;;
67195;SDS011;54122;53.538;49.366;2022-11-15T03:27:54;2.85;;;1.10;;
67195;SDS011;54122;53.538;49.366;2022-11-15T03:30:24;9.43;;;1.02;;
67195;SDS011;54122;53.538;49.366;2022-11-15T03:32:51;3.58;;;0.80;;
67195;SDS011;54122;53.538;49.366;2022-11-15T03:35:22;11.27;;;1.25;;
67195;SDS011;54122;53.538;49.366;2022-11-15T03:38:04;5.03;;;1.35;;
67195;SDS011;54122;53.538;49.366;2022-11-15T03:40:41;5.63;;;1.23;;
67195;SDS011;54122;53.538;49.366;2022-11-15T03:46:02;17.30;;;1.67;;
67195;SDS011;54122;53.538;49.366;2022-11-15T03:48:40;4.03;;;1.40;;
67195;SDS011;54122;53.538;49.366;2022-11-15T03:51:14;17.58;;;1.60;;
67195;SDS011;54122;53.538;49.366;2022-11-15T03:53:41;13.38;;;1.50;;
67195;SDS011;54122;53.538;49.366;2022-11-15T03:56:07;3.80;;;1.30;;
67195;SDS011;54122;53.538;49.366;2022-11-15T03:58:34;10.48;;;1.40;;
67195;SDS011;54122;53.538;49.366;2022-11-15T04:01:00;6.13;;;1.67;;
67195;SDS011;54122;53.538;49.366;2022-11-15T04:03:26;6.18;;;1.40;;
67195;SDS011;54122;53.538;49.366;2022-11-15T04:05:52;6.88;;;1.30;;
67195;SDS011;54122;53.538;49.366;2022-11-15T04:08:19;5.13;;;1.20;;
67195;SDS011;54122;53.538;49.366;2022-11-15T04:10:45;7.18;;;1.48;;
67195;SDS011;54122;53.538;49.366;2022-11-15T04:13:13;5.75;;;1.08;;
67195;SDS011;54122;53.538;49.366;2022-11-15T04:15:39;4.90;;;0.60;;
67195;SDS011;54122;53.538;49.366;2022-11-15T04:18:06;5.15;;;1.10;;
67195;SDS011;54122;53.538;49.366;2022-11-15T04:20:32;3.85;;;0.95;;
67195;SDS011;54122;53.538;49.366;2022-11-15T04:23:17;6.43;;;1.00;;
67195;SDS011;54122;53.538;49.366;2022-11-15T04:26:04;5.82;;;1.15;;
67195;SDS011;54122;53.538;49.366;2022-11-15T04:28:32;12.10;;;0.93;;
67195;SDS011;54122;53.538;49.366;2022-11-15T04:30:59;5.15;;;1.25;;
67195;SDS011;54122;53.538;49.366;2022-11-15T04:33:25;9.73;;;1.02;;
67195;SDS011;54122;53.538;49.366;2022-11-15T04:35:51;7.18;;;1.15;;
67195;SDS011;54122;53.538;49.366;2022-11-15T04:38:36;11.32;;;1.60;;
67195;SDS011;54122;53.538;49.366;2022-11-15T04:41:02;7.60;;;1.13;;
67195;SDS011;54122;53.538;49.366;2022-11-15T04:43:28;12.18;;;1.20;;
67195;SDS011;54122;53.538;49.366;2022-11-15T04:45:55;5.70;;;0.90;;
67195;SDS011;54122;53.538;49.366;2022-11-15T04:48:21;13.02;;;1.23;;
67195;SDS011;54122;53.538;49.366;2022-11-15T04:50:47;4.05;;;1.40;;
67195;SDS011;54122;53.538;49.366;2022-11-15T04:53:14;3.80;;;1.35;;
67195;SDS011;54122;53.538;49.366;2022-11-15T04:55:43;11.40;;;1.27;;
67195;SDS011;54122;53.538;49.366;2022-11-15T04:58:10;11.90;;;1.10;;
67195;SDS011;54122;53.538;49.366;2022-11-15T05:00:36;2.08;;;0.85;;
67195;SDS011;54122;53.538;49.366;2022-11-15T05:03:02;4.97;;;1.95;;
67195;SDS011;54122;53.538;49.366;2022-11-15T05:05:47;9.43;;;1.15;;
67195;SDS011;54122;53.538;49.366;2022-11-15T05:08:13;5.10;;;0.95;;
67195;SDS011;54122;53.538;49.366;2022-11-15T05:10:39;9.00;;;1.58;;
67195;SDS011;54122;53.538;49.366;2022-11-15T05:13:05;8.55;;;0.90;;
67195;SDS011;54122;53.538;49.366;2022-11-15T05:15:31;1.10;;;0.63;;
67195;SDS011;54122;53.538;49.366;2022-11-15T05:17:58;11.25;;;1.10;;
67195;SDS011;54122;53.538;49.366;2022-11-15T05:20:25;7.38;;;0.90;;
67195;SDS011;54122;53.538;49.366;2022-11-15T05:22:52;4.05;;;0.70;;
67195;SDS011;54122;53.538;49.366;2022-11-15T05:25:21;8.57;;;1.00;;
67195;SDS011;54122;53.538;49.366;2022-11-15T05:27:47;7.32;;;1.25;;
67195;SDS011;54122;53.538;49.366;2022-11-15T05:30:14;7.45;;;0.90;;
67195;SDS011;54122;53.538;49.366;2022-11-15T05:32:40;9.25;;;0.88;;
67195;SDS011;54122;53.538;49.366;2022-11-15T05:35:07;2.10;;;0.90;;
67195;SDS011;54122;53.538;49.366;2022-11-15T05:37:37;5.75;;;0.85;;
67195;SDS011;54122;53.538;49.366;2022-11-15T05:40:03;1.67;;;0.63;;
67195;SDS011;54122;53.538;49.366;2022-11-15T05:42:30;3.92;;;0.80;;
67195;SDS011;54122;53.538;49.366;2022-11-15T05:44:56;4.00;;;1.02;;
67195;SDS011;54122;53.538;49.366;2022-11-15T05:47:25;7.68;;;1.00;;
67195;SDS011;54122;53.538;49.366;2022-11-15T05:49:54;9.15;;;1.50;;
67195;SDS011;54122;53.538;49.366;2022-11-15T05:52:22;11.70;;;1.27;;
67195;SDS011;54122;53.538;49.366;2022-11-15T05:54:50;2.97;;;1.00;;
67195;SDS011;54122;53.538;49.366;2022-11-15T05:57:18;23.27;;;1.70;;
67195;SDS011;54122;53.538;49.366;2022-11-15T05:59:44;4.18;;;1.30;;
67195;SDS011;54122;53.538;49.366;2022-11-15T06:02:10;12.43;;;1.23;;
67195;SDS011;54122;53.538;49.366;2022-11-15T06:04:37;11.10;;;1.63;;
67195;SDS011;54122;53.538;49.366;2022-11-15T06:07:03;9.00;;;1.42;;
67195;SDS011;54122;53.538;49.366;2022-11-15T06:09:29;7.60;;;1.20;;
67195;SDS011;54122;53.538;49.366;2022-11-15T06:11:55;11.65;;;1.02;;
67195;SDS011;54122;53.538;49.366;2022-11-15T06:14:24;12.85;;;1.00;;
67195;SDS011;54122;53.538;49.366;2022-11-15T06:16:50;11.88;;;1.10;;
67195;SDS011;54122;53.538;49.366;2022-11-15T06:19:19;1.75;;;0.77;;
67195;SDS011;54122;53.538;49.366;2022-11-15T06:21:45;4.47;;;1.05;;
67195;SDS011;54122;53.538;49.366;2022-11-15T06:24:14;15.13;;;1.95;;
67195;SDS011;54122;53.538;49.366;2022-11-15T06:26:41;15.75;;;1.83;;
67195;SDS011;54122;53.538;49.366;2022-11-15T06:29:07;13.20;;;1.10;;
67195;SDS011;54122;53.538;49.366;2022-11-15T06:31:33;6.47;;;1.10;;
67195;SDS011;54122;53.538;49.366;2022-11-15T06:34:00;4.07;;;1.13;;
67195;SDS011;54122;53.538;49.366;2022-11-15T06:36:26;15.25;;;1.25;;
67195;SDS011;54122;53.538;49.366;2022-11-15T06:38:52;9.23;;;1.17;;
67195;SDS011;54122;53.538;49.366;2022-11-15T06:41:18;12.23;;;1.40;;
67195;SDS011;54122;53.538;49.366;2022-11-15T06:43:47;2.33;;;0.93;;
67195;SDS011;54122;53.538;49.366;2022-11-15T06:46:13;6.13;;;1.08;;
67195;SDS011;54122;53.538;49.366;2022-11-15T06:48:39;12.07;;;1.20;;
67195;SDS011;54122;53.538;49.366;2022-11-15T06:51:05;2.40;;;0.80;;
67195;SDS011;54122;53.538;49.366;2022-11-15T06:53:32;4.25;;;0.70;;
67195;SDS011;54122;53.538;49.366;2022-11-15T06:56:03;4.25;;;1.05;;
67195;SDS011;54122;53.538;49.366;2022-11-15T06:58:31;13.57;;;1.15;;
67195;SDS011;54122;53.538;49.366;2022-11-15T07:01:05;13.60;;;0.63;;
67195;SDS011;54122;53.538;49.366;2022-11-15T07:03:34;8.98;;;0.85;;
67195;SDS011;54122;53.538;49.366;2022-11-15T07:06:02;5.35;;;0.90;;
67195;SDS011;54122;53.538;49.366;2022-11-15T07:08:29;8.70;;;0.70;;
67195;SDS011;54122;53.538;49.366;2022-11-15T07:10:58;2.33;;;0.70;;
67195;SDS011;54122;53.538;49.366;2022-11-15T07:13:27;1.58;;;0.57;;
67195;SDS011;54122;53.538;49.366;2022-11-15T07:15:55;7.30;;;0.70;;
67195;SDS011;54122;53.538;49.366;2022-11-15T07:18:21;7.25;;;1.13;;
67195;SDS011;54122;53.538;49.366;2022-11-15T07:20:47;3.38;;;0.82;;
67195;SDS011;54122;53.538;49.366;2022-11-15T07:23:13;10.57;;;0.90;;
67195;SDS011;54122;53.538;49.366;2022-11-15T07:25:39;6.85;;;0.52;;
67195;SDS011;54122;53.538;49.366;2022-11-15T07:28:05;2.92;;;0.60;;
67195;SDS011;54122;53.538;49.366;2022-11-15T07:30:32;3.20;;;0.75;;
67195;SDS011;54122;53.538;49.366;2022-11-15T07:32:58;4.82;;;0.80;;
67195;SDS011;54122;53.538;49.366;2022-11-15T07:35:26;9.30;;;0.90;;
67195;SDS011;54122;53.538;49.366;2022-11-15T07:37:54;1.85;;;0.60;;
67195;SDS011;54122;53.538;49.366;2022-11-15T07:40:23;7.93;;;0.93;;
67195;SDS011;54122;53.538;49.366;2022-11-15T07:42:50;4.85;;;1.02;;
67195;SDS011;54122;53.538;49.366;2022-11-15T07:45:20;8.77;;;0.90;;
67195;SDS011;54122;53.538;49.366;2022-11-15T07:47:47;14.05;;;1.30;;
67195;SDS011;54122;53.538;49.366;2022-11-15T07:50:13;2.83;;;0.70;;
67195;SDS011;54122;53.538;49.366;2022-11-15T07:52:40;10.15;;;1.15;;
67195;SDS011;54122;53.538;49.366;2022-11-15T07:55:06;19.00;;;0.95;;
67195;SDS011;54122;53.538;49.366;2022-11-15T07:57:33;6.55;;;1.00;;
67195;SDS011;54122;53.538;49.366;2022-11-15T07:59:59;5.03;;;0.70;;
67195;SDS011;54122;53.538;49.366;2022-11-15T08:02:25;6.05;;;1.05;;
67195;SDS011;54122;53.538;49.366;2022-11-15T08:04:51;13.15;;;1.15;;
67195;SDS011;54122;53.538;49.366;2022-11-15T08:07:17;2.95;;;0.73;;
67195;SDS011;54122;53.538;49.366;2022-11-15T08:09:44;11.50;;;1.15;;
67195;SDS011;54122;53.538;49.366;2022-11-15T08:12:10;6.30;;;1.00;;
67195;SDS011;54122;53.538;49.366;2022-11-15T08:14:36;4.50;;;0.80;;
67195;SDS011;54122;53.538;49.366;2022-11-15T08:17:02;6.13;;;0.85;;
67195;SDS011;54122;53.538;49.366;2022-11-15T08:19:28;7.05;;;1.27;;
67195;SDS011;54122;53.538;49.366;2022-11-15T08:21:54;2.33;;;0.88;;
67195;SDS011;54122;53.538;49.366;2022-11-15T08:24:21;4.55;;;1.02;;
67195;SDS011;54122;53.538;49.366;2022-11-15T08:26:47;5.93;;;1.08;;
67195;SDS011;54122;53.538;49.366;2022-11-15T08:29:13;18.52;;;1.10;;
67195;SDS011;54122;53.538;49.366;2022-11-15T08:31:39;5.93;;;1.20;;
67195;SDS011;54122;53.538;49.366;2022-11-15T08:34:05;12.55;;;1.13;;
67195;SDS011;54122;53.538;49.366;2022-11-15T08:36:32;8.25;;;1.38;;
67195;SDS011;54122;53.538;49.366;2022-11-15T08:38:58;16.13;;;1.10;;
67195;SDS011;54122;53.538;49.366;2022-11-15T08:41:25;3.38;;;0.80;;
67195;SDS011;54122;53.538;49.366;2022-11-15T08:43:57;9.23;;;1.25;;
67195;SDS011;54122;53.538;49.366;2022-11-15T08:46:23;16.45;;;1.35;;
67195;SDS011;54122;53.538;49.366;2022-11-15T08:48:49;6.22;;;0.93;;
67195;SDS011;54122;53.538;49.366;2022-11-15T08:51:15;23.73;;;1.15;;
67195;SDS011;54122;53.538;49.366;2022-11-15T08:53:42;8.23;;;1.05;;
67195;SDS011;54122;53.538;49.366;2022-11-15T08:56:09;4.22;;;1.00;;
67195;SDS011;54122;53.538;49.366;2022-11-15T08:58:36;18.65;;;1.38;;
67195;SDS011;54122;53.538;49.366;2022-11-15T09:01:03;7.95;;;1.08;;
67195;SDS011;54122;53.538;49.366;2022-11-15T09:03:30;14.43;;;1.20;;
67195;SDS011;54122;53.538;49.366;2022-11-15T09:05:57;6.82;;;1.42;;
67195;SDS011;54122;53.538;49.366;2022-11-15T09:08:29;10.98;;;1.00;;
67195;SDS011;54122;53.538;49.366;2022-11-15T09:10:56;7.07;;;0.90;;
67195;SDS011;54122;53.538;49.366;2022-11-15T09:13:22;4.05;;;0.90;;
67195;SDS011;54122;53.538;49.366;2022-11-15T09:15:48;13.10;;;1.77;;
67195;SDS011;54122;53.538;49.366;2022-11-15T09:18:14;13.18;;;1.30;;
67195;SDS011;54122;53.538;49.366;2022-11-15T09:20:41;2.03;;;0.88;;
67195;SDS011;54122;53.538;49.366;2022-11-15T09:23:07;9.40;;;0.93;;
67195;SDS011;54122;53.538;49.366;2022-11-15T09:25:33;4.68;;;1.33;;
67195;SDS011;54122;53.538;49.366;2022-11-15T09:27:59;7.85;;;1.10;;
67195;SDS011;54122;53.538;49.366;2022-11-15T09:30:25;16.38;;;1.50;;
67195;SDS011;54122;53.538;49.366;2022-11-15T09:32:51;10.20;;;1.13;;
67195;SDS011;54122;53.538;49.366;2022-11-15T09:35:18;4.10;;;1.17;;
67195;SDS011;54122;53.538;49.366;2022-11-15T09:37:44;11.75;;;1.10;;
67195;SDS011;54122;53.538;49.366;2022-11-15T09:40:14;6.57;;;0.95;;
67195;SDS011;54122;53.538;49.366;2022-11-15T09:45:34;11.48;;;1.05;;
67195;SDS011;54122;53.538;49.366;2022-11-15T09:50:58;3.85;;;0.88;;
67195;SDS011;54122;53.538;49.366;2022-11-15T09:56:25;5.22;;;0.70;;
67195;SDS011;54122;53.538;49.366;2022-11-15T10:01:31;5.72;;;1.20;;
67195;SDS011;54122;53.538;49.366;2022-11-15T10:04:23;3.92;;;0.75;;
67195;SDS011;54122;53.538;49.366;2022-11-15T10:06:59;13.82;;;1.20;;
67195;SDS011;54122;53.538;49.366;2022-11-15T10:09:45;9.90;;;1.13;;
67195;SDS011;54122;53.538;49.366;2022-11-15T10:12:14;7.40;;;1.20;;
67195;SDS011;54122;53.538;49.366;2022-11-15T10:14:42;12.77;;;1.30;;
67195;SDS011;54122;53.538;49.366;2022-11-15T10:17:17;9.45;;;0.82;;
67195;SDS011;54122;53.538;49.366;2022-11-15T10:22:49;13.30;;;1.33;;
67195;SDS011;54122;53.538;49.366;2022-11-15T10:25:23;9.30;;;1.13;;
67195;SDS011;54122;53.538;49.366;2022-11-15T10:30:58;9.05;;;1.20;;
67195;SDS011;54122;53.538;49.366;2022-11-15T10:33:33;11.18;;;1.42;;
67195;SDS011;54122;53.538;49.366;2022-11-15T10:41:14;4.35;;;0.98;;
67195;SDS011;54122;53.538;49.366;2022-11-15T10:43:42;6.80;;;1.27;;
67195;SDS011;54122;53.538;49.366;2022-11-15T10:46:29;12.65;;;1.05;;
67195;SDS011;54122;53.538;49.366;2022-11-15T10:49:06;8.98;;;1.15;;
67195;SDS011;54122;53.538;49.366;2022-11-15T10:55:00;5.68;;;1.30;;
67195;SDS011;54122;53.538;49.366;2022-11-15T10:57:36;16.17;;;1.60;;
67195;SDS011;54122;53.538;49.366;2022-11-15T11:00:06;4.15;;;1.42;;
67195;SDS011;54122;53.538;49.366;2022-11-15T11:11:04;9.85;;;1.38;;
67195;SDS011;54122;53.538;49.366;2022-11-15T11:13:31;8.38;;;1.52;;
67195;SDS011;54122;53.538;49.366;2022-11-15T11:18:55;8.93;;;2.05;;
67195;SDS011;54122;53.538;49.366;2022-11-15T11:21:57;8.02;;;1.77;;
67195;SDS011;54122;53.538;49.366;2022-11-15T11:32:47;7.30;;;0.95;;
67195;SDS011;54122;53.538;49.366;2022-11-15T11:40:44;8.05;;;1.52;;
67195;SDS011;54122;53.538;49.366;2022-11-15T11:46:46;2.65;;;0.77;;
67195;SDS011;54122;53.538;49.366;2022-11-15T11:49:23;8.35;;;1.30;;
67195;SDS011;54122;53.538;49.366;2022-11-15T12:00:38;5.00;;;1.33;;
67195;SDS011;54122;53.538;49.366;2022-11-15T12:05:54;3.75;;;0.93;;
67195;SDS011;54122;53.538;49.366;2022-11-15T12:14:32;9.15;;;1.40;;
67195;SDS011;54122;53.538;49.366;2022-11-15T12:17:09;4.38;;;1.27;;
67195;SDS011;54122;53.538;49.366;2022-11-15T12:19:37;4.90;;;1.10;;
67195;SDS011;54122;53.538;49.366;2022-11-15T12:25:07;6.13;;;1.33;;
67195;SDS011;54122;53.538;49.366;2022-11-15T12:27:46;17.83;;;1.75;;
67195;SDS011;54122;53.538;49.366;2022-11-15T12:30:16;8.63;;;1.60;;
67195;SDS011;54122;53.538;49.366;2022-11-15T12:32:55;9.50;;;1.27;;
67195;SDS011;54122;53.538;49.366;2022-11-15T12:37:56;11.25;;;2.00;;
67195;SDS011;54122;53.538;49.366;2022-11-15T12:48:52;14.43;;;1.80;;
67195;SDS011;54122;53.538;49.366;2022-11-15T12:51:01;13.25;;;2.88;;
67195;SDS011;54122;53.538;49.366;2022-11-15T12:53:29;5.35;;;1.73;;
67195;SDS011;54122;53.538;49.366;2022-11-15T13:06:46;11.27;;;2.47;;
67195;SDS011;54122;53.538;49.366;2022-11-15T13:11:58;6.53;;;1.88;;
67195;SDS011;54122;53.538;49.366;2022-11-15T13:14:46;8.25;;;1.98;;
67195;SDS011;54122;53.538;49.366;2022-11-15T13:17:24;14.57;;;2.28;;
67195;SDS011;54122;53.538;49.366;2022-11-15T13:22:39;14.07;;;3.08;;
67195;SDS011;54122;53.538;49.366;2022-11-15T13:25:18;14.68;;;3.20;;
67195;SDS011;54122;53.538;49.366;2022-11-15T13:27:48;13.50;;;2.78;;
67195;SDS011;54122;53.538;49.366;2022-11-15T13:30:22;17.25;;;2.42;;
67195;SDS011;54122;53.538;49.366;2022-11-15T13:32:50;13.50;;;2.00;;
67195;SDS011;54122;53.538;49.366;2022-11-15T13:35:21;16.15;;;2.97;;
67195;SDS011;54122;53.538;49.366;2022-11-15T13:37:50;16.08;;;2.58;;
67195;SDS011;54122;53.538;49.366;2022-11-15T13:40:24;9.18;;;2.03;;
67195;SDS011;54122;53.538;49.366;2022-11-15T13:42:56;19.17;;;2.67;;
67195;SDS011;54122;53.538;49.366;2022-11-15T13:45:23;3.65;;;2.10;;
67195;SDS011;54122;53.538;49.366;2022-11-15T13:47:55;23.25;;;3.50;;
67195;SDS011;54122;53.538;49.366;2022-11-15T13:50:27;12.20;;;2.83;;
67195;SDS011;54122;53.538;49.366;2022-11-15T13:52:59;17.35;;;3.53;;
67195;SDS011;54122;53.538;49.366;2022-11-15T13:55:28;31.23;;;3.53;;
67195;SDS011;54122;53.538;49.366;2022-11-15T13:57:58;24.13;;;3.15;;
67195;SDS011;54122;53.538;49.366;2022-11-15T14:00:40;12.00;;;3.00;;
67195;SDS011;54122;53.538;49.366;2022-11-15T14:03:14;16.15;;;3.05;;
67195;SDS011;54122;53.538;49.366;2022-11-15T14:05:42;26.25;;;3.33;;
67195;SDS011;54122;53.538;49.366;2022-11-15T14:10:41;14.00;;;3.50;;
67195;SDS011;54122;53.538;49.366;2022-11-15T14:13:27;20.27;;;3.10;;
67195;SDS011;54122;53.538;49.366;2022-11-15T14:15:54;19.40;;;3.30;;
67195;SDS011;54122;53.538;49.366;2022-11-15T14:21:18;11.77;;;3.38;;
67195;SDS011;54122;53.538;49.366;2022-11-15T14:23:45;9.30;;;3.08;;
67195;SDS011;54122;53.538;49.366;2022-11-15T14:26:31;12.13;;;3.15;;
67195;SDS011;54122;53.538;49.366;2022-11-15T14:32:05;18.77;;;3.45;;
67195;SDS011;54122;53.538;49.366;2022-11-15T14:34:39;12.13;;;3.05;;
67195;SDS011;54122;53.538;49.366;2022-11-15T14:37:10;10.30;;;3.70;;
67195;SDS011;54122;53.538;49.366;2022-11-15T14:39:48;14.10;;;3.05;;
67195;SDS011;54122;53.538;49.366;2022-11-15T14:42:15;13.13;;;2.75;;
67195;SDS011;54122;53.538;49.366;2022-11-15T14:44:41;25.80;;;3.08;;
67195;SDS011;54122;53.538;49.366;2022-11-15T14:47:07;12.02;;;3.05;;
67195;SDS011;54122;53.538;49.366;2022-11-15T14:49:33;19.55;;;2.95;;
67195;SDS011;54122;53.538;49.366;2022-11-15T14:52:00;10.75;;;2.60;;
67195;SDS011;54122;53.538;49.366;2022-11-15T14:54:26;14.70;;;3.33;;
67195;SDS011;54122;53.538;49.366;2022-11-15T14:56:52;18.17;;;3.17;;
67195;SDS011;54122;53.538;49.366;2022-11-15T14:59:18;22.08;;;3.00;;
67195;SDS011;54122;53.538;49.366;2022-11-15T15:01:44;8.60;;;2.63;;
67195;SDS011;54122;53.538;49.366;2022-11-15T15:04:11;19.08;;;3.40;;
67195;SDS011;54122;53.538;49.366;2022-11-15T15:06:37;12.25;;;3.28;;
67195;SDS011;54122;53.538;49.366;2022-11-15T15:09:05;11.02;;;3.85;;
67195;SDS011;54122;53.538;49.366;2022-11-15T15:11:31;16.13;;;3.60;;
67195;SDS011;54122;53.538;49.366;2022-11-15T15:13:57;15.68;;;3.83;;
67195;SDS011;54122;53.538;49.366;2022-11-15T15:16:26;13.77;;;3.05;;
67195;SDS011;54122;53.538;49.366;2022-11-15T15:18:52;16.23;;;3.05;;
67195;SDS011;54122;53.538;49.366;2022-11-15T15:21:23;10.55;;;1.70;;
67195;SDS011;54122;53.538;49.366;2022-11-15T15:23:54;6.22;;;1.80;;
67195;SDS011;54122;53.538;49.366;2022-11-15T15:26:20;12.35;;;1.90;;
67195;SDS011;54122;53.538;49.366;2022-11-15T15:28:48;11.52;;;2.05;;
67195;SDS011;54122;53.538;49.366;2022-11-15T15:31:14;16.05;;;1.58;;
67195;SDS011;54122;53.538;49.366;2022-11-15T15:33:40;6.13;;;1.52;;
67195;SDS011;54122;53.538;49.366;2022-11-15T15:36:13;12.20;;;2.00;;
67195;SDS011;54122;53.538;49.366;2022-11-15T15:38:44;5.82;;;1.55;;
67195;SDS011;54122;53.538;49.366;2022-11-15T15:41:15;1.85;;;0.82;;
67195;SDS011;54122;53.538;49.366;2022-11-15T15:43:42;16.17;;;1.60;;
67195;SDS011;54122;53.538;49.366;2022-11-15T15:46:13;4.45;;;1.42;;
67195;SDS011;54122;53.538;49.366;2022-11-15T15:48:41;3.95;;;0.93;;
67195;SDS011;54122;53.538;49.366;2022-11-15T15:51:08;5.85;;;1.33;;
67195;SDS011;54122;53.538;49.366;2022-11-15T15:53:34;6.22;;;1.25;;
67195;SDS011;54122;53.538;49.366;2022-11-15T15:56:00;9.70;;;1.45;;
67195;SDS011;54122;53.538;49.366;2022-11-15T15:58:27;6.85;;;1.13;;
67195;SDS011;54122;53.538;49.366;2022-11-15T16:00:53;8.18;;;1.27;;
67195;SDS011;54122;53.538;49.366;2022-11-15T16:03:19;7.72;;;1.00;;
67195;SDS011;54122;53.538;49.366;2022-11-15T16:05:45;5.82;;;1.20;;
67195;SDS011;54122;53.538;49.366;2022-11-15T16:08:17;8.10;;;1.13;;
67195;SDS011;54122;53.538;49.366;2022-11-15T16:10:44;10.73;;;1.00;;
67195;SDS011;54122;53.538;49.366;2022-11-15T16:13:11;1.90;;;0.70;;
67195;SDS011;54122;53.538;49.366;2022-11-15T16:15:37;3.92;;;1.38;;
67195;SDS011;54122;53.538;49.366;2022-11-15T16:18:04;6.93;;;0.90;;
67195;SDS011;54122;53.538;49.366;2022-11-15T16:20:45;4.57;;;1.00;;
67195;SDS011;54122;53.538;49.366;2022-11-15T16:25:50;10.05;;;0.80;;
67195;SDS011;54122;53.538;49.366;2022-11-15T16:28:30;7.40;;;0.93;;
67195;SDS011;54122;53.538;49.366;2022-11-15T16:31:05;10.43;;;1.30;;
67195;SDS011;54122;53.538;49.366;2022-11-15T16:33:35;7.32;;;1.20;;
67195;SDS011;54122;53.538;49.366;2022-11-15T16:36:03;2.42;;;1.05;;
67195;SDS011;54122;53.538;49.366;2022-11-15T16:38:32;5.25;;;1.13;;
67195;SDS011;54122;53.538;49.366;2022-11-15T16:40:58;6.25;;;1.10;;
67195;SDS011;54122;53.538;49.366;2022-11-15T16:43:28;2.17;;;0.95;;
67195;SDS011;54122;53.538;49.366;2022-11-15T16:45:54;5.05;;;1.00;;
67195;SDS011;54122;53.538;49.366;2022-11-15T16:48:22;6.75;;;1.10;;
67195;SDS011;54122;53.538;49.366;2022-11-15T16:50:50;4.63;;;1.45;;
67195;SDS011;54122;53.538;49.366;2022-11-15T16:53:20;6.05;;;1.20;;
67195;SDS011;54122;53.538;49.366;2022-11-15T16:55:47;7.55;;;1.40;;
67195;SDS011;54122;53.538;49.366;2022-11-15T16:58:13;8.40;;;1.55;;
67195;SDS011;54122;53.538;49.366;2022-11-15T17:00:40;7.43;;;1.25;;
67195;SDS011;54122;53.538;49.366;2022-11-15T17:03:06;19.65;;;1.30;;
67195;SDS011;54122;53.538;49.366;2022-11-15T17:05:33;7.30;;;2.17;;
67195;SDS011;54122;53.538;49.366;2022-11-15T17:07:59;4.47;;;1.30;;
67195;SDS011;54122;53.538;49.366;2022-11-15T17:10:25;6.35;;;1.65;;
67195;SDS011;54122;53.538;49.366;2022-11-15T17:12:53;6.00;;;1.40;;